createdAt,value
2018-12-01T00:04:32.950Z,95.60
2018-12-01T00:09:54.184Z,95.70
2018-12-01T00:14:57.802Z,96.00
2018-12-01T00:20:01.354Z,96.10
2018-12-01T00:25:06.410Z,95.70
2018-12-01T00:30:17.033Z,95.70
2018-12-01T00:35:20.583Z,96.00
2018-12-01T00:40:24.135Z,96.00
2018-12-01T00:45:27.730Z,96.20
2018-12-01T00:50:31.350Z,96.60
2018-12-01T00:55:34.912Z,96.40
2018-12-01T01:00:38.822Z,96.50
2018-12-01T01:05:42.486Z,96.50
2018-12-01T01:10:46.121Z,96.40
2018-12-01T01:15:49.670Z,96.50
2018-12-01T01:20:53.154Z,96.70
2018-12-01T01:25:56.818Z,96.80
2018-12-01T01:31:00.319Z,97.00
2018-12-01T01:36:03.950Z,97.00
2018-12-01T01:41:08.264Z,96.80
2018-12-01T01:46:11.768Z,96.90
2018-12-01T01:51:15.241Z,96.60
2018-12-01T01:56:18.883Z,96.80
2018-12-01T02:01:22.392Z,96.60
2018-12-01T02:06:26.167Z,96.60
2018-12-01T02:11:29.753Z,96.80
2018-12-01T02:16:38.528Z,97.00
2018-12-01T02:21:42.065Z,97.40
2018-12-01T02:26:45.695Z,97.10
2018-12-01T02:31:49.411Z,97.50
2018-12-01T02:36:53.026Z,97.60
2018-12-01T02:41:56.522Z,97.80
2018-12-01T02:47:08.856Z,97.80
2018-12-01T02:52:12.534Z,97.80
2018-12-01T02:57:16.007Z,97.60
2018-12-01T03:02:19.774Z,97.80
2018-12-01T03:07:23.478Z,98.00
2018-12-01T03:12:32.833Z,98.00
2018-12-01T03:17:36.412Z,98.30
2018-12-01T03:22:40.295Z,98.40
2018-12-01T03:27:43.813Z,98.70
2018-12-01T03:32:48.865Z,98.40
2018-12-01T03:37:52.443Z,98.30
2018-12-01T03:42:56.069Z,98.00
2018-12-01T03:47:59.672Z,98.00
2018-12-01T03:53:03.225Z,98.00
2018-12-01T03:58:06.838Z,98.00
2018-12-01T04:03:10.522Z,98.40
2018-12-01T04:08:14.173Z,98.80
2018-12-01T04:13:18.430Z,99.10
2018-12-01T04:18:22.129Z,98.70
2018-12-01T04:23:25.625Z,98.70
2018-12-01T04:28:29.259Z,98.80
2018-12-01T04:33:32.784Z,98.80
2018-12-01T04:38:36.302Z,98.90
2018-12-01T04:43:40.160Z,98.80
2018-12-01T04:48:43.916Z,99.00
2018-12-01T04:53:47.564Z,99.10
2018-12-01T04:58:51.246Z,99.10
2018-12-01T05:03:54.830Z,99.10
2018-12-01T05:08:58.586Z,99.00
2018-12-01T05:14:02.503Z,98.80
2018-12-01T05:19:06.347Z,99.10
2018-12-01T05:24:09.941Z,98.70
2018-12-01T05:29:13.491Z,98.80
2018-12-01T05:34:16.957Z,98.60
2018-12-01T05:39:20.557Z,98.70
2018-12-01T05:44:24.027Z,98.90
2018-12-01T05:49:27.609Z,99.10
2018-12-01T05:54:31.182Z,98.80
2018-12-01T05:59:34.797Z,99.00
2018-12-01T06:04:38.421Z,99.00
2018-12-01T06:09:42.155Z,99.30
2018-12-01T06:14:45.623Z,99.20
2018-12-01T06:19:49.163Z,99.50
2018-12-01T06:24:52.696Z,99.50
2018-12-01T06:29:56.261Z,99.30
2018-12-01T06:35:00.311Z,99.20
2018-12-01T06:40:08.230Z,99.40
2018-12-01T06:45:13.012Z,99.40
2018-12-01T06:50:20.771Z,99.50
2018-12-01T06:55:24.502Z,99.50
2018-12-01T07:00:28.112Z,99.50
2018-12-01T07:05:31.595Z,99.70
2018-12-01T07:10:35.195Z,99.80
2018-12-01T07:15:40.390Z,99.90
2018-12-01T07:20:43.896Z,99.90
2018-12-01T07:25:47.501Z,99.70
2018-12-01T07:30:51.067Z,99.60
2018-12-01T07:35:54.706Z,99.90
2018-12-01T07:40:58.193Z,99.90
2018-12-01T07:46:02.253Z,99.60
2018-12-01T07:51:05.953Z,99.70
2018-12-01T07:56:10.000Z,99.60
2018-12-01T08:01:14.312Z,99.30
2018-12-01T08:06:18.112Z,99.10
2018-12-01T08:11:21.710Z,98.60
2018-12-01T08:16:25.766Z,98.80
2018-12-01T08:21:29.430Z,98.40
2018-12-01T08:26:32.943Z,98.20
2018-12-01T08:31:36.515Z,97.80
2018-12-01T08:36:40.262Z,97.60
2018-12-01T08:41:44.301Z,97.80
2018-12-01T08:46:47.992Z,97.40
2018-12-01T08:51:51.874Z,97.50
2018-12-01T08:56:55.360Z,97.80
2018-12-01T09:01:59.069Z,96.60
2018-12-01T09:07:02.637Z,96.80
2018-12-01T09:12:06.509Z,96.00
2018-12-01T09:17:10.282Z,95.30
2018-12-01T09:22:14.071Z,96.00
2018-12-01T09:27:22.349Z,96.10
2018-12-01T09:32:21.332Z,96.10
2018-12-01T09:37:25.071Z,96.30
2018-12-01T09:42:28.586Z,96.30
2018-12-01T09:47:32.166Z,96.40
2018-12-01T09:52:35.711Z,96.10
2018-12-01T09:57:40.418Z,95.70
2018-12-01T10:02:45.121Z,95.30
2018-12-01T10:07:48.767Z,95.10
2018-12-01T10:12:54.962Z,95.00
2018-12-01T10:17:58.548Z,94.80
2018-12-01T10:23:07.879Z,94.80
2018-12-01T10:28:12.074Z,94.60
2018-12-01T10:33:15.847Z,94.80
2018-12-01T10:38:19.731Z,94.70
2018-12-01T10:43:23.507Z,94.60
2018-12-01T10:48:27.032Z,94.20
2018-12-01T10:53:30.626Z,94.20
2018-12-01T10:58:34.801Z,94.00
2018-12-01T11:03:44.713Z,94.10
2018-12-01T11:08:48.892Z,94.00
2018-12-01T11:13:52.423Z,93.70
2018-12-01T11:18:55.951Z,93.80
2018-12-01T11:23:59.627Z,93.80
2018-12-01T11:29:03.426Z,93.60
2018-12-01T11:34:07.069Z,93.20
2018-12-01T11:39:10.763Z,93.20
2018-12-01T11:44:14.574Z,93.30
2018-12-01T11:49:18.595Z,93.10
2018-12-01T11:54:22.112Z,93.20
2018-12-01T11:59:25.760Z,91.70
2018-12-01T12:04:29.402Z,92.70
2018-12-01T12:09:33.044Z,93.00
2018-12-01T12:14:36.662Z,93.20
2018-12-01T12:19:40.299Z,93.10
2018-12-01T12:24:43.825Z,93.00
2018-12-01T12:29:47.491Z,93.00
2018-12-01T12:34:50.974Z,92.80
2018-12-01T12:39:54.430Z,92.90
2018-12-01T12:44:58.091Z,92.40
2018-12-01T12:50:01.681Z,92.60
2018-12-01T12:55:10.580Z,92.60
2018-12-01T13:00:16.069Z,92.60
2018-12-01T13:05:22.874Z,92.30
2018-12-01T13:10:26.966Z,92.30
2018-12-01T13:15:30.639Z,92.50
2018-12-01T13:20:34.211Z,92.50
2018-12-01T13:25:39.700Z,92.50
2018-12-01T13:30:52.586Z,92.50
2018-12-01T13:35:57.223Z,92.90
2018-12-01T13:41:00.739Z,92.70
2018-12-01T13:46:04.366Z,92.70
2018-12-01T13:51:08.351Z,92.70
2018-12-01T13:56:12.042Z,92.80
2018-12-01T14:01:15.576Z,92.80
2018-12-01T14:06:19.774Z,92.80
2018-12-01T14:11:24.260Z,92.70
2018-12-01T14:16:27.318Z,92.80
2018-12-01T14:21:30.941Z,92.80
2018-12-01T14:26:34.536Z,92.80
2018-12-01T14:31:38.099Z,93.10
2018-12-01T14:36:41.561Z,93.10
2018-12-01T14:41:45.089Z,92.90
2018-12-01T14:46:48.828Z,92.90
2018-12-01T14:51:52.347Z,92.80
2018-12-01T14:56:56.045Z,93.00
2018-12-01T15:01:59.556Z,92.80
2018-12-01T15:07:03.106Z,92.90
2018-12-01T15:12:06.848Z,93.00
2018-12-01T15:17:10.330Z,93.00
2018-12-01T15:22:16.920Z,93.20
2018-12-01T15:27:50.555Z,93.10
2018-12-01T15:33:13.722Z,93.00
2018-12-01T15:38:17.389Z,92.80
2018-12-01T15:43:21.389Z,92.80
2018-12-01T15:48:25.172Z,92.80
2018-12-01T15:53:28.878Z,92.90
2018-12-01T15:58:32.621Z,92.90
2018-12-01T16:03:36.317Z,93.10
2018-12-01T16:08:40.787Z,93.30
2018-12-01T16:13:44.593Z,93.50
2018-12-01T16:18:48.209Z,93.20
2018-12-01T16:23:51.734Z,93.40
2018-12-01T16:28:55.563Z,93.30
2018-12-01T16:33:59.129Z,93.20
2018-12-01T16:39:03.091Z,93.10
2018-12-01T16:44:06.847Z,93.10
2018-12-01T16:49:10.380Z,93.10
2018-12-01T16:54:14.003Z,93.00
2018-12-01T16:59:17.631Z,92.80
2018-12-01T17:04:21.122Z,92.80
2018-12-01T17:09:24.679Z,92.90
2018-12-01T17:14:28.585Z,92.90
2018-12-01T17:19:32.154Z,92.70
2018-12-01T17:24:35.779Z,92.90
2018-12-01T17:29:39.442Z,92.40
2018-12-01T17:34:43.110Z,92.10
2018-12-01T17:39:46.734Z,91.80
2018-12-01T17:44:50.440Z,91.70
2018-12-01T17:49:54.151Z,91.60
2018-12-01T17:54:58.038Z,91.70
2018-12-01T18:00:01.573Z,91.40
2018-12-01T18:05:08.953Z,91.50
2018-12-01T18:10:13.923Z,91.40
2018-12-01T18:15:18.236Z,91.20
2018-12-01T18:20:22.735Z,90.90
2018-12-01T18:25:28.416Z,90.60
2018-12-01T18:30:36.024Z,90.40
2018-12-01T18:35:39.836Z,90.30
2018-12-01T18:40:43.447Z,90.30
2018-12-01T18:45:50.078Z,90.20
2018-12-01T18:50:53.713Z,90.00
2018-12-01T18:55:57.683Z,90.50
2018-12-01T19:01:01.172Z,88.90
2018-12-01T19:06:05.105Z,88.30
2018-12-01T19:11:08.944Z,88.20
2018-12-01T19:16:12.477Z,88.50
2018-12-01T19:21:16.075Z,89.00
2018-12-01T19:26:19.545Z,89.70
2018-12-01T19:31:23.072Z,90.00
2018-12-01T19:36:26.717Z,90.00
2018-12-01T19:41:30.317Z,90.00
2018-12-01T19:46:34.043Z,90.20
2018-12-01T19:51:37.563Z,90.20
2018-12-01T19:56:41.169Z,90.20
2018-12-01T20:01:44.762Z,90.20
2018-12-01T20:06:48.435Z,90.50
2018-12-01T20:11:52.103Z,90.40
2018-12-01T20:16:56.859Z,90.60
2018-12-01T20:22:00.542Z,90.60
2018-12-01T20:27:05.309Z,90.60
2018-12-01T20:32:09.024Z,90.80
2018-12-01T20:37:17.756Z,90.90
2018-12-01T20:42:21.491Z,91.00
2018-12-01T20:47:26.675Z,91.00
2018-12-01T20:52:30.352Z,91.20
2018-12-01T20:57:33.946Z,91.30
2018-12-01T21:02:37.644Z,91.20
2018-12-01T21:07:41.624Z,91.40
2018-12-01T21:12:45.863Z,91.40
2018-12-01T21:17:51.052Z,91.40
2018-12-01T21:22:55.347Z,91.30
2018-12-01T21:28:01.637Z,91.50
2018-12-01T21:33:15.166Z,91.50
2018-12-01T21:38:18.716Z,91.60
2018-12-01T21:43:22.263Z,91.60
2018-12-01T21:48:25.774Z,92.10
2018-12-01T21:53:29.551Z,92.50
2018-12-01T21:58:33.083Z,92.70
2018-12-01T22:03:36.640Z,92.80
2018-12-01T22:08:40.137Z,93.10
2018-12-01T22:13:43.780Z,93.10
2018-12-01T22:18:47.453Z,93.10
2018-12-01T22:23:50.964Z,93.20
2018-12-01T22:28:54.634Z,92.80
2018-12-01T22:33:58.180Z,92.80
2018-12-01T22:39:01.778Z,92.90
2018-12-01T22:44:12.564Z,93.10
2018-12-01T22:49:16.099Z,93.20
2018-12-01T22:54:19.571Z,94.00
2018-12-01T22:59:23.187Z,94.40
2018-12-01T23:04:26.781Z,95.10
2018-12-01T23:09:30.565Z,95.90
2018-12-01T23:14:35.103Z,96.60
2018-12-01T23:19:39.802Z,97.20
2018-12-01T23:24:43.307Z,97.70
2018-12-01T23:29:46.743Z,98.20
2018-12-01T23:34:50.491Z,98.00
2018-12-01T23:39:53.954Z,97.90
2018-12-01T23:44:58.325Z,98.20
2018-12-01T23:50:01.938Z,97.50
2018-12-01T23:55:12.076Z,97.00
